createdAt,value
2019-04-20T00:01:34.428Z,5.90
2019-04-20T00:06:12.835Z,5.80
2019-04-20T00:11:32.106Z,5.50
2019-04-20T00:15:58.008Z,5.60
2019-04-20T00:21:11.586Z,5.50
2019-04-20T00:31:39.832Z,5.50
2019-04-20T00:35:23.446Z,5.30
2019-04-20T00:40:13.517Z,5.30
2019-04-20T00:45:33.160Z,5.30
2019-04-20T00:51:02.819Z,5.20
2019-04-20T00:54:49.354Z,5.10
2019-04-20T01:00:59.706Z,5.10
2019-04-20T01:05:51.916Z,4.90
2019-04-20T01:09:24.216Z,4.90
2019-04-20T01:14:30.780Z,4.90
2019-04-20T01:19:04.670Z,4.90
2019-04-20T01:24:11.443Z,4.80
2019-04-20T01:29:35.478Z,4.80
2019-04-20T01:34:30.904Z,4.80
2019-04-20T01:39:28.235Z,4.70
2019-04-20T01:43:23.023Z,4.60
2019-04-20T01:48:35.029Z,4.60
2019-04-20T01:54:11.601Z,4.60
2019-04-20T02:03:06.955Z,4.60
2019-04-20T02:07:55.794Z,4.50
2019-04-20T02:12:44.761Z,4.40
2019-04-20T02:18:14.791Z,4.30
2019-04-20T02:23:20.836Z,4.10
2019-04-20T02:27:07.923Z,4.10
2019-04-20T02:34:31.361Z,4.10
2019-04-20T02:43:57.499Z,4.10
2019-04-20T03:02:21.694Z,3.90
2019-04-20T03:12:23.214Z,3.80
2019-04-20T03:16:59.192Z,3.90
2019-04-20T03:22:39.171Z,3.90
2019-04-20T03:36:24.973Z,3.80
2019-04-20T03:41:04.732Z,3.70
2019-04-20T03:45:18.188Z,3.50
2019-04-20T03:51:12.518Z,3.60
2019-04-20T03:55:48.882Z,3.50
2019-04-20T04:00:35.327Z,3.50
2019-04-20T04:05:40.663Z,3.40
2019-04-20T04:10:15.668Z,3.40
2019-04-20T04:14:07.441Z,3.20
2019-04-20T04:19:29.959Z,3.30
2019-04-20T04:24:42.433Z,3.20
2019-04-20T04:30:14.041Z,3.30
2019-04-20T04:34:48.449Z,3.30
2019-04-20T04:39:58.586Z,3.20
2019-04-20T04:44:23.497Z,3.30
2019-04-20T04:48:35.491Z,3.40
2019-04-20T04:53:29.714Z,3.40
2019-04-20T04:57:56.485Z,3.60
2019-04-20T05:03:38.311Z,3.70
2019-04-20T05:08:26.035Z,3.90
2019-04-20T05:12:40.442Z,6.60
2019-04-20T05:23:16.137Z,14.50
2019-04-20T05:28:27.240Z,14.60
2019-04-20T05:32:39.483Z,19.90
2019-04-20T05:38:46.779Z,21.40
2019-04-20T05:43:05.627Z,23.60
2019-04-20T05:47:47.505Z,25.00
2019-04-20T05:58:01.769Z,21.30
2019-04-20T06:02:43.681Z,18.90
2019-04-20T06:07:35.603Z,16.10
2019-04-20T06:17:01.459Z,13.00
2019-04-20T06:22:25.971Z,11.60
2019-04-20T06:27:14.248Z,11.70
2019-04-20T06:31:35.169Z,11.40
2019-04-20T06:37:05.676Z,10.90
2019-04-20T06:51:18.589Z,10.80
2019-04-20T06:55:57.127Z,10.80
2019-04-20T07:00:56.216Z,11.00
2019-04-20T07:10:51.219Z,12.00
2019-04-20T07:14:55.166Z,15.00
2019-04-20T07:20:09.729Z,12.40
2019-04-20T07:25:36.943Z,12.70
2019-04-20T07:30:29.467Z,13.40
2019-04-20T07:35:13.899Z,13.40
2019-04-20T07:44:54.661Z,13.90
2019-04-20T07:49:40.090Z,14.10
2019-04-20T07:58:33.552Z,14.50
2019-04-20T08:04:12.913Z,14.80
2019-04-20T08:19:09.610Z,15.10
2019-04-20T08:23:28.412Z,15.20
2019-04-20T08:27:14.438Z,15.60
2019-04-20T08:32:57.997Z,15.60
2019-04-20T08:43:37.569Z,16.20
2019-04-20T08:48:17.175Z,16.20
2019-04-20T08:53:14.360Z,16.30
2019-04-20T08:56:51.110Z,16.60
2019-04-20T09:01:14.339Z,17.00
2019-04-20T09:06:48.879Z,17.00
2019-04-20T09:15:36.519Z,17.50
2019-04-20T09:21:10.819Z,17.50
2019-04-20T09:31:11.757Z,17.60
2019-04-20T09:36:17.719Z,18.00
2019-04-20T09:41:05.915Z,18.00
2019-04-20T09:45:02.558Z,18.30
2019-04-20T09:50:47.419Z,18.40
2019-04-20T09:55:21.517Z,18.50
2019-04-20T10:00:28.761Z,18.60
2019-04-20T10:04:11.598Z,18.80
2019-04-20T10:09:05.613Z,18.70
2019-04-20T10:13:54.596Z,18.90
2019-04-20T10:18:56.533Z,18.90
2019-04-20T10:23:38.397Z,18.90
2019-04-20T10:28:29.398Z,19.30
2019-04-20T10:33:20.111Z,19.50
2019-04-20T10:38:11.697Z,19.60
2019-04-20T10:43:06.401Z,19.90
2019-04-20T10:47:54.659Z,20.10
2019-04-20T10:52:45.684Z,20.00
2019-04-20T10:57:37.266Z,20.30
2019-04-20T11:02:28.329Z,20.30
2019-04-20T11:07:20.453Z,20.80
2019-04-20T11:12:12.224Z,20.80
2019-04-20T11:17:02.923Z,20.90
2019-04-20T11:21:54.127Z,20.90
2019-04-20T11:26:47.274Z,21.00
2019-04-20T11:31:54.060Z,21.10
2019-04-20T11:36:28.086Z,21.10
2019-04-20T11:41:34.073Z,21.20
2019-04-20T11:46:09.685Z,21.40
2019-04-20T11:51:03.758Z,21.40
2019-04-20T11:55:58.356Z,21.30
2019-04-20T12:01:18.663Z,21.30
2019-04-20T12:06:00.907Z,21.20
2019-04-20T12:10:34.660Z,21.20
2019-04-20T12:15:24.363Z,21.40
2019-04-20T12:20:16.376Z,21.40
2019-04-20T12:25:08.219Z,21.50
2019-04-20T12:30:01.412Z,21.60
2019-04-20T12:34:50.528Z,21.80
2019-04-20T12:39:43.278Z,21.80
2019-04-20T12:44:33.244Z,21.80
2019-04-20T12:49:27.866Z,21.90
2019-04-20T12:54:20.399Z,22.00
2019-04-20T12:59:11.817Z,22.00
2019-04-20T13:04:09.655Z,22.20
2019-04-20T13:09:04.034Z,22.20
2019-04-20T13:13:45.985Z,22.20
2019-04-20T13:18:36.967Z,22.20
2019-04-20T13:23:28.653Z,22.00
2019-04-20T13:28:21.456Z,22.20
2019-04-20T13:33:12.970Z,22.30
2019-04-20T13:38:05.406Z,22.20
2019-04-20T13:42:56.862Z,22.20
2019-04-20T13:47:50.759Z,22.20
2019-04-20T13:52:41.082Z,22.30
2019-04-20T13:57:34.084Z,22.30
2019-04-20T14:02:27.087Z,22.40
2019-04-20T14:07:23.690Z,22.50
2019-04-20T14:12:39.271Z,22.50
2019-04-20T14:17:03.492Z,22.50
2019-04-20T14:21:54.139Z,22.50
2019-04-20T14:26:46.376Z,22.60
2019-04-20T14:31:37.785Z,22.60
2019-04-20T14:36:31.003Z,22.50
2019-04-20T14:41:22.009Z,22.50
2019-04-20T14:46:14.353Z,22.50
2019-04-20T14:51:05.589Z,22.70
2019-04-20T14:55:56.085Z,22.70
2019-04-20T15:00:54.657Z,22.70
2019-04-20T15:05:39.680Z,22.70
2019-04-20T15:10:32.925Z,22.60
2019-04-20T15:15:23.535Z,22.60
2019-04-20T15:20:17.430Z,22.70
2019-04-20T15:25:09.831Z,22.60
2019-04-20T15:30:00.456Z,22.60
2019-04-20T15:34:51.529Z,22.50
2019-04-20T15:39:42.958Z,22.60
2019-04-20T15:44:35.765Z,22.60
2019-04-20T15:49:26.191Z,22.50
2019-04-20T15:54:18.044Z,22.60
2019-04-20T15:59:10.245Z,22.50
2019-04-20T16:04:01.133Z,22.60
2019-04-20T16:08:52.448Z,22.60
2019-04-20T16:13:56.115Z,22.50
2019-04-20T16:18:35.119Z,22.50
2019-04-20T16:23:25.627Z,22.40
2019-04-20T16:28:15.699Z,22.40
2019-04-20T16:33:08.579Z,22.40
2019-04-20T16:38:00.731Z,22.50
2019-04-20T16:42:53.990Z,22.50
2019-04-20T16:47:46.420Z,22.50
2019-04-20T16:52:36.746Z,22.50
2019-04-20T16:57:27.682Z,22.40
2019-04-20T17:02:24.239Z,22.30
2019-04-20T17:07:14.511Z,22.20
2019-04-20T17:12:05.732Z,22.00
2019-04-20T17:21:48.315Z,21.90
2019-04-20T17:26:38.673Z,21.60
2019-04-20T17:31:31.855Z,21.50
2019-04-20T17:36:40.140Z,21.40
2019-04-20T17:42:28.594Z,21.20
2019-04-20T17:47:03.388Z,21.10
2019-04-20T17:52:39.902Z,21.00
2019-04-20T17:55:55.517Z,21.00
2019-04-20T18:01:00.229Z,20.70
2019-04-20T18:06:50.001Z,20.70
2019-04-20T18:11:14.806Z,20.60
2019-04-20T18:16:46.289Z,20.30
2019-04-20T18:20:14.434Z,20.10
2019-04-20T18:26:31.518Z,19.80
2019-04-20T18:30:48.369Z,19.60
2019-04-20T18:35:06.575Z,19.60
2019-04-20T18:40:11.031Z,19.40
2019-04-20T18:45:44.027Z,19.30
2019-04-20T18:50:10.401Z,18.80
2019-04-20T18:54:35.128Z,18.20
2019-04-20T18:59:05.488Z,17.50
2019-04-20T19:03:57.865Z,17.30
2019-04-20T19:08:58.868Z,16.10
2019-04-20T19:13:51.510Z,16.10
2019-04-20T19:19:27.529Z,15.60
2019-04-20T19:23:27.019Z,15.00
2019-04-20T19:28:44.450Z,14.60
2019-04-20T19:34:06.044Z,14.30
2019-04-20T19:38:26.437Z,14.00
2019-04-20T19:43:25.183Z,13.30
2019-04-20T19:48:51.449Z,13.20
2019-04-20T19:58:27.955Z,12.30
2019-04-20T20:02:18.714Z,12.30
2019-04-20T20:07:44.122Z,12.10
2019-04-20T20:12:19.751Z,11.90
2019-04-20T20:17:47.971Z,11.70
2019-04-20T20:22:34.133Z,11.50
2019-04-20T20:27:04.113Z,11.30
2019-04-20T20:32:38.630Z,11.00
2019-04-20T20:36:54.484Z,10.80
2019-04-20T20:41:57.551Z,10.60
2019-04-20T20:46:58.896Z,10.40
2019-04-20T20:52:21.653Z,10.20
2019-04-20T20:56:19.086Z,10.00
2019-04-20T21:01:10.595Z,9.90
2019-04-20T21:05:25.749Z,9.80
2019-04-20T21:10:44.045Z,9.60
2019-04-20T21:15:26.457Z,9.40
2019-04-20T21:21:05.977Z,9.30
2019-04-20T21:24:55.288Z,9.20
2019-04-20T21:29:58.519Z,9.00
2019-04-20T21:34:35.820Z,8.80
2019-04-20T21:39:57.720Z,8.60
2019-04-20T21:44:41.259Z,8.40
2019-04-20T21:50:05.654Z,8.20
2019-04-20T21:54:06.647Z,8.10
2019-04-20T22:03:44.357Z,7.80
2019-04-20T22:08:51.706Z,7.70
2019-04-20T22:13:44.466Z,7.50
2019-04-20T22:18:26.749Z,7.50
2019-04-20T22:24:06.171Z,7.40
2019-04-20T22:28:06.876Z,7.10
2019-04-20T22:32:58.163Z,7.10
2019-04-20T22:37:42.874Z,7.10
2019-04-20T22:42:58.473Z,7.00
2019-04-20T22:47:35.736Z,6.90
2019-04-20T22:53:02.496Z,6.80
2019-04-20T22:58:00.893Z,6.70
2019-04-20T23:02:09.775Z,6.40
2019-04-20T23:06:57.233Z,6.40
2019-04-20T23:11:43.013Z,6.40
2019-04-20T23:16:53.474Z,6.40
2019-04-20T23:21:26.259Z,6.40
2019-04-20T23:26:40.406Z,6.40
2019-04-20T23:31:26.812Z,6.30
2019-04-20T23:36:08.428Z,6.10
2019-04-20T23:40:51.989Z,6.10
2019-04-20T23:45:52.877Z,6.00
2019-04-20T23:51:47.901Z,5.80
2019-04-20T23:55:27.940Z,5.60
